sensor_id;sensor_type;location;lat;lon;timestamp;temperature;humidity
21646;DHT22;10984;45.712;4.800;2023-06-05T00:02:12;16.20;99.90
21646;DHT22;10984;45.712;4.800;2023-06-05T00:04:38;16.20;99.90
21646;DHT22;10984;45.712;4.800;2023-06-05T00:07:05;16.20;99.90
21646;DHT22;10984;45.712;4.800;2023-06-05T00:09:31;16.20;99.90
21646;DHT22;10984;45.712;4.800;2023-06-05T00:11:56;16.20;99.90
21646;DHT22;10984;45.712;4.800;2023-06-05T00:14:22;16.20;99.90
21646;DHT22;10984;45.712;4.800;2023-06-05T00:16:48;16.10;99.90
21646;DHT22;10984;45.712;4.800;2023-06-05T00:19:15;16.10;99.90
21646;DHT22;10984;45.712;4.800;2023-06-05T00:21:41;16.10;99.90
21646;DHT22;10984;45.712;4.800;2023-06-05T00:24:06;16.00;99.90
21646;DHT22;10984;45.712;4.800;2023-06-05T00:26:32;16.00;99.90
21646;DHT22;10984;45.712;4.800;2023-06-05T00:28:58;15.90;99.90
21646;DHT22;10984;45.712;4.800;2023-06-05T00:31:23;15.90;99.90
21646;DHT22;10984;45.712;4.800;2023-06-05T00:33:49;15.90;99.90
21646;DHT22;10984;45.712;4.800;2023-06-05T00:36:16;15.80;99.90
21646;DHT22;10984;45.712;4.800;2023-06-05T00:38:44;15.80;99.90
21646;DHT22;10984;45.712;4.800;2023-06-05T00:41:10;15.70;99.90
21646;DHT22;10984;45.712;4.800;2023-06-05T00:43:36;15.80;99.90
21646;DHT22;10984;45.712;4.800;2023-06-05T00:46:04;15.80;99.90
21646;DHT22;10984;45.712;4.800;2023-06-05T00:48:31;15.80;99.90
21646;DHT22;10984;45.712;4.800;2023-06-05T00:50:57;15.70;99.90
21646;DHT22;10984;45.712;4.800;2023-06-05T00:53:24;15.70;99.90
21646;DHT22;10984;45.712;4.800;2023-06-05T00:55:50;15.70;99.90
21646;DHT22;10984;45.712;4.800;2023-06-05T00:58:17;15.70;99.90
21646;DHT22;10984;45.712;4.800;2023-06-05T01:00:43;15.60;99.90
21646;DHT22;10984;45.712;4.800;2023-06-05T01:03:09;15.60;99.90
21646;DHT22;10984;45.712;4.800;2023-06-05T01:05:37;15.60;99.90
21646;DHT22;10984;45.712;4.800;2023-06-05T01:08:03;15.60;99.90
21646;DHT22;10984;45.712;4.800;2023-06-05T01:16:04;15.60;99.90
21646;DHT22;10984;45.712;4.800;2023-06-05T01:18:31;15.60;99.90
21646;DHT22;10984;45.712;4.800;2023-06-05T01:21:00;15.50;99.90
21646;DHT22;10984;45.712;4.800;2023-06-05T01:23:27;15.50;99.90
21646;DHT22;10984;45.712;4.800;2023-06-05T01:25:57;15.50;99.90
21646;DHT22;10984;45.712;4.800;2023-06-05T01:28:29;15.50;99.90
21646;DHT22;10984;45.712;4.800;2023-06-05T01:31:16;15.50;99.90
21646;DHT22;10984;45.712;4.800;2023-06-05T01:33:51;15.50;99.90
21646;DHT22;10984;45.712;4.800;2023-06-05T01:36:23;15.50;99.90
21646;DHT22;10984;45.712;4.800;2023-06-05T01:38:50;15.50;99.90
21646;DHT22;10984;45.712;4.800;2023-06-05T01:41:17;15.40;99.90
21646;DHT22;10984;45.712;4.800;2023-06-05T01:43:46;15.40;99.90
21646;DHT22;10984;45.712;4.800;2023-06-05T01:46:14;15.30;99.90
21646;DHT22;10984;45.712;4.800;2023-06-05T01:48:40;15.40;99.90
21646;DHT22;10984;45.712;4.800;2023-06-05T01:51:06;15.40;99.90
21646;DHT22;10984;45.712;4.800;2023-06-05T01:53:32;15.30;99.90
21646;DHT22;10984;45.712;4.800;2023-06-05T01:55:57;15.30;99.90
21646;DHT22;10984;45.712;4.800;2023-06-05T02:01:09;15.30;99.90
21646;DHT22;10984;45.712;4.800;2023-06-05T02:03:35;15.30;99.90
21646;DHT22;10984;45.712;4.800;2023-06-05T02:06:01;15.20;99.90
21646;DHT22;10984;45.712;4.800;2023-06-05T02:08:26;15.30;99.90
21646;DHT22;10984;45.712;4.800;2023-06-05T02:10:54;15.20;99.90
21646;DHT22;10984;45.712;4.800;2023-06-05T02:13:20;15.20;99.90
21646;DHT22;10984;45.712;4.800;2023-06-05T02:15:48;15.20;99.90
21646;DHT22;10984;45.712;4.800;2023-06-05T02:18:17;15.10;99.90
21646;DHT22;10984;45.712;4.800;2023-06-05T02:20:43;15.10;99.90
21646;DHT22;10984;45.712;4.800;2023-06-05T02:23:08;15.10;99.90
21646;DHT22;10984;45.712;4.800;2023-06-05T02:25:35;15.10;99.90
21646;DHT22;10984;45.712;4.800;2023-06-05T02:28:01;15.00;99.90
21646;DHT22;10984;45.712;4.800;2023-06-05T02:30:26;15.10;99.90
21646;DHT22;10984;45.712;4.800;2023-06-05T02:32:52;15.10;99.90
21646;DHT22;10984;45.712;4.800;2023-06-05T02:35:36;15.10;99.90
21646;DHT22;10984;45.712;4.800;2023-06-05T02:38:02;15.10;99.90
21646;DHT22;10984;45.712;4.800;2023-06-05T02:40:31;15.00;99.90
21646;DHT22;10984;45.712;4.800;2023-06-05T02:42:56;15.00;99.90
21646;DHT22;10984;45.712;4.800;2023-06-05T02:45:22;15.00;99.90
21646;DHT22;10984;45.712;4.800;2023-06-05T02:48:06;15.00;99.90
21646;DHT22;10984;45.712;4.800;2023-06-05T02:50:32;15.00;99.90
21646;DHT22;10984;45.712;4.800;2023-06-05T02:52:58;14.90;99.90
21646;DHT22;10984;45.712;4.800;2023-06-05T02:55:23;14.90;99.90
21646;DHT22;10984;45.712;4.800;2023-06-05T02:57:49;14.90;99.90
21646;DHT22;10984;45.712;4.800;2023-06-05T03:00:15;14.90;99.90
21646;DHT22;10984;45.712;4.800;2023-06-05T03:02:42;14.90;99.90
21646;DHT22;10984;45.712;4.800;2023-06-05T03:05:14;14.90;99.90
21646;DHT22;10984;45.712;4.800;2023-06-05T03:07:40;14.90;99.90
21646;DHT22;10984;45.712;4.800;2023-06-05T03:10:06;14.90;99.90
21646;DHT22;10984;45.712;4.800;2023-06-05T03:12:33;14.90;99.90
21646;DHT22;10984;45.712;4.800;2023-06-05T03:14:58;14.90;99.90
21646;DHT22;10984;45.712;4.800;2023-06-05T03:17:24;14.90;99.90
21646;DHT22;10984;45.712;4.800;2023-06-05T03:19:50;14.80;99.90
21646;DHT22;10984;45.712;4.800;2023-06-05T03:22:17;14.80;99.90
21646;DHT22;10984;45.712;4.800;2023-06-05T03:24:45;14.80;99.90
21646;DHT22;10984;45.712;4.800;2023-06-05T03:27:11;14.70;99.90
21646;DHT22;10984;45.712;4.800;2023-06-05T03:29:37;14.70;99.90
21646;DHT22;10984;45.712;4.800;2023-06-05T03:32:02;14.70;99.90
21646;DHT22;10984;45.712;4.800;2023-06-05T03:34:28;14.70;99.90
21646;DHT22;10984;45.712;4.800;2023-06-05T03:36:55;14.70;99.90
21646;DHT22;10984;45.712;4.800;2023-06-05T03:39:24;14.70;99.90
21646;DHT22;10984;45.712;4.800;2023-06-05T03:41:50;14.70;99.90
21646;DHT22;10984;45.712;4.800;2023-06-05T03:44:16;14.70;99.90
21646;DHT22;10984;45.712;4.800;2023-06-05T03:46:41;14.70;99.90
21646;DHT22;10984;45.712;4.800;2023-06-05T03:49:07;14.60;99.90
21646;DHT22;10984;45.712;4.800;2023-06-05T03:51:35;14.60;99.90
21646;DHT22;10984;45.712;4.800;2023-06-05T03:54:01;14.60;99.90
21646;DHT22;10984;45.712;4.800;2023-06-05T03:56:29;14.50;99.90
21646;DHT22;10984;45.712;4.800;2023-06-05T03:59:00;14.60;99.90
21646;DHT22;10984;45.712;4.800;2023-06-05T04:01:35;14.50;99.90
21646;DHT22;10984;45.712;4.800;2023-06-05T04:04:03;14.60;99.90
21646;DHT22;10984;45.712;4.800;2023-06-05T04:06:31;14.60;99.90
21646;DHT22;10984;45.712;4.800;2023-06-05T04:08:58;14.60;99.90
21646;DHT22;10984;45.712;4.800;2023-06-05T04:11:24;14.60;99.90
21646;DHT22;10984;45.712;4.800;2023-06-05T04:13:53;14.50;99.90
21646;DHT22;10984;45.712;4.800;2023-06-05T04:16:19;14.60;99.90
21646;DHT22;10984;45.712;4.800;2023-06-05T04:18:44;14.70;99.90
21646;DHT22;10984;45.712;4.800;2023-06-05T04:21:10;14.70;99.90
21646;DHT22;10984;45.712;4.800;2023-06-05T04:23:36;14.80;99.90
21646;DHT22;10984;45.712;4.800;2023-06-05T04:26:02;14.90;99.90
21646;DHT22;10984;45.712;4.800;2023-06-05T04:28:28;15.00;99.90
21646;DHT22;10984;45.712;4.800;2023-06-05T04:30:55;15.00;99.90
21646;DHT22;10984;45.712;4.800;2023-06-05T04:33:39;15.10;99.90
21646;DHT22;10984;45.712;4.800;2023-06-05T04:36:04;15.30;99.90
21646;DHT22;10984;45.712;4.800;2023-06-05T04:38:30;15.40;99.90
21646;DHT22;10984;45.712;4.800;2023-06-05T04:40:56;15.50;99.90
21646;DHT22;10984;45.712;4.800;2023-06-05T04:43:22;15.70;99.90
21646;DHT22;10984;45.712;4.800;2023-06-05T04:45:48;15.80;99.90
21646;DHT22;10984;45.712;4.800;2023-06-05T04:48:13;15.90;99.90
21646;DHT22;10984;45.712;4.800;2023-06-05T04:50:40;16.20;99.90
21646;DHT22;10984;45.712;4.800;2023-06-05T04:53:06;16.30;99.90
21646;DHT22;10984;45.712;4.800;2023-06-05T04:55:31;16.40;99.90
21646;DHT22;10984;45.712;4.800;2023-06-05T04:57:57;16.50;99.90
21646;DHT22;10984;45.712;4.800;2023-06-05T05:00:26;16.70;99.90
21646;DHT22;10984;45.712;4.800;2023-06-05T05:02:52;17.10;99.90
21646;DHT22;10984;45.712;4.800;2023-06-05T05:05:19;17.60;99.90
21646;DHT22;10984;45.712;4.800;2023-06-05T05:07:45;18.00;99.90
21646;DHT22;10984;45.712;4.800;2023-06-05T05:10:11;18.50;99.90
21646;DHT22;10984;45.712;4.800;2023-06-05T05:12:37;18.80;99.90
21646;DHT22;10984;45.712;4.800;2023-06-05T05:15:04;19.20;99.90
21646;DHT22;10984;45.712;4.800;2023-06-05T05:17:30;19.50;99.90
21646;DHT22;10984;45.712;4.800;2023-06-05T05:19:56;19.60;99.90
21646;DHT22;10984;45.712;4.800;2023-06-05T05:22:23;19.40;99.90
21646;DHT22;10984;45.712;4.800;2023-06-05T05:24:48;19.90;99.90
21646;DHT22;10984;45.712;4.800;2023-06-05T05:27:14;20.70;99.90
21646;DHT22;10984;45.712;4.800;2023-06-05T05:29:40;21.10;99.90
21646;DHT22;10984;45.712;4.800;2023-06-05T05:32:05;21.70;99.90
21646;DHT22;10984;45.712;4.800;2023-06-05T05:34:31;22.40;99.90
21646;DHT22;10984;45.712;4.800;2023-06-05T05:36:59;22.90;11.70
21646;DHT22;10984;45.712;4.800;2023-06-05T05:39:25;23.40;1.00
21646;DHT22;10984;45.712;4.800;2023-06-05T05:41:50;24.10;1.00
21646;DHT22;10984;45.712;4.800;2023-06-05T05:44:16;24.70;1.00
21646;DHT22;10984;45.712;4.800;2023-06-05T05:46:45;25.30;1.00
21646;DHT22;10984;45.712;4.800;2023-06-05T05:49:10;25.20;1.00
21646;DHT22;10984;45.712;4.800;2023-06-05T05:51:36;25.10;1.00
21646;DHT22;10984;45.712;4.800;2023-06-05T05:54:01;24.60;1.00
21646;DHT22;10984;45.712;4.800;2023-06-05T05:56:27;25.00;1.00
21646;DHT22;10984;45.712;4.800;2023-06-05T05:58:54;25.30;1.00
21646;DHT22;10984;45.712;4.800;2023-06-05T06:01:19;25.70;1.00
21646;DHT22;10984;45.712;4.800;2023-06-05T06:03:47;25.80;1.00
21646;DHT22;10984;45.712;4.800;2023-06-05T06:06:13;26.10;1.00
21646;DHT22;10984;45.712;4.800;2023-06-05T06:08:39;25.60;1.00
21646;DHT22;10984;45.712;4.800;2023-06-05T06:11:05;25.60;1.00
21646;DHT22;10984;45.712;4.800;2023-06-05T06:13:32;26.20;1.00
21646;DHT22;10984;45.712;4.800;2023-06-05T06:16:16;26.60;1.00
21646;DHT22;10984;45.712;4.800;2023-06-05T06:18:42;26.10;1.00
21646;DHT22;10984;45.712;4.800;2023-06-05T06:21:08;26.10;1.00
21646;DHT22;10984;45.712;4.800;2023-06-05T06:23:33;26.50;1.00
21646;DHT22;10984;45.712;4.800;2023-06-05T06:25:59;27.00;1.00
21646;DHT22;10984;45.712;4.800;2023-06-05T06:28:25;26.50;1.00
21646;DHT22;10984;45.712;4.800;2023-06-05T06:30:51;27.10;1.00
21646;DHT22;10984;45.712;4.800;2023-06-05T06:33:16;27.30;99.90
21646;DHT22;10984;45.712;4.800;2023-06-05T06:35:42;26.60;99.90
21646;DHT22;10984;45.712;4.800;2023-06-05T06:38:09;26.30;1.00
21646;DHT22;10984;45.712;4.800;2023-06-05T06:40:34;26.70;1.00
21646;DHT22;10984;45.712;4.800;2023-06-05T06:43:00;27.00;1.00
21646;DHT22;10984;45.712;4.800;2023-06-05T06:45:26;27.50;99.90
21646;DHT22;10984;45.712;4.800;2023-06-05T06:47:51;27.80;99.90
21646;DHT22;10984;45.712;4.800;2023-06-05T06:50:17;27.80;99.90
21646;DHT22;10984;45.712;4.800;2023-06-05T06:52:43;27.90;99.90
21646;DHT22;10984;45.712;4.800;2023-06-05T06:55:08;28.40;99.90
21646;DHT22;10984;45.712;4.800;2023-06-05T06:57:34;28.50;99.90
21646;DHT22;10984;45.712;4.800;2023-06-05T07:00:00;28.40;99.90
21646;DHT22;10984;45.712;4.800;2023-06-05T07:02:26;28.20;99.90
21646;DHT22;10984;45.712;4.800;2023-06-05T07:04:51;28.20;99.90
21646;DHT22;10984;45.712;4.800;2023-06-05T07:07:20;28.70;99.90
21646;DHT22;10984;45.712;4.800;2023-06-05T07:09:49;28.80;99.90
21646;DHT22;10984;45.712;4.800;2023-06-05T07:12:18;29.10;99.90
21646;DHT22;10984;45.712;4.800;2023-06-05T07:14:45;29.10;99.90
21646;DHT22;10984;45.712;4.800;2023-06-05T07:17:11;28.60;99.90
21646;DHT22;10984;45.712;4.800;2023-06-05T07:19:37;27.80;99.90
21646;DHT22;10984;45.712;4.800;2023-06-05T07:22:03;27.30;99.90
21646;DHT22;10984;45.712;4.800;2023-06-05T07:24:30;27.00;99.90
21646;DHT22;10984;45.712;4.800;2023-06-05T07:26:57;26.40;99.90
21646;DHT22;10984;45.712;4.800;2023-06-05T07:29:23;27.20;99.90
21646;DHT22;10984;45.712;4.800;2023-06-05T07:31:53;27.80;99.90
21646;DHT22;10984;45.712;4.800;2023-06-05T07:34:20;28.80;99.90
21646;DHT22;10984;45.712;4.800;2023-06-05T07:36:47;29.10;99.90
21646;DHT22;10984;45.712;4.800;2023-06-05T07:39:14;28.90;99.90
21646;DHT22;10984;45.712;4.800;2023-06-05T07:41:39;28.80;99.90
21646;DHT22;10984;45.712;4.800;2023-06-05T07:44:09;28.70;99.90
21646;DHT22;10984;45.712;4.800;2023-06-05T07:46:35;28.50;99.90
21646;DHT22;10984;45.712;4.800;2023-06-05T07:49:01;27.70;99.90
21646;DHT22;10984;45.712;4.800;2023-06-05T07:51:26;27.90;99.90
21646;DHT22;10984;45.712;4.800;2023-06-05T07:53:52;27.80;99.90
21646;DHT22;10984;45.712;4.800;2023-06-05T07:56:18;27.50;99.90
21646;DHT22;10984;45.712;4.800;2023-06-05T07:58:43;28.00;99.90
21646;DHT22;10984;45.712;4.800;2023-06-05T08:01:10;27.80;99.90
21646;DHT22;10984;45.712;4.800;2023-06-05T08:03:37;28.00;99.90
21646;DHT22;10984;45.712;4.800;2023-06-05T08:06:03;28.00;99.90
21646;DHT22;10984;45.712;4.800;2023-06-05T08:08:28;28.60;99.90
21646;DHT22;10984;45.712;4.800;2023-06-05T08:10:55;28.90;99.90
21646;DHT22;10984;45.712;4.800;2023-06-05T08:13:21;29.20;99.90
21646;DHT22;10984;45.712;4.800;2023-06-05T08:15:47;28.60;99.90
21646;DHT22;10984;45.712;4.800;2023-06-05T08:18:12;28.10;99.90
21646;DHT22;10984;45.712;4.800;2023-06-05T08:20:39;27.80;99.90
21646;DHT22;10984;45.712;4.800;2023-06-05T08:23:05;26.50;99.90
21646;DHT22;10984;45.712;4.800;2023-06-05T08:25:31;26.20;1.00
21646;DHT22;10984;45.712;4.800;2023-06-05T08:27:56;26.50;1.00
21646;DHT22;10984;45.712;4.800;2023-06-05T08:30:22;26.20;1.00
21646;DHT22;10984;45.712;4.800;2023-06-05T08:32:48;25.50;1.00
21646;DHT22;10984;45.712;4.800;2023-06-05T08:35:13;24.60;1.00
21646;DHT22;10984;45.712;4.800;2023-06-05T08:37:39;24.10;1.00
21646;DHT22;10984;45.712;4.800;2023-06-05T08:40:06;23.90;1.00
21646;DHT22;10984;45.712;4.800;2023-06-05T08:42:34;23.40;1.00
21646;DHT22;10984;45.712;4.800;2023-06-05T08:45:00;23.10;1.00
21646;DHT22;10984;45.712;4.800;2023-06-05T08:47:28;22.50;1.00
21646;DHT22;10984;45.712;4.800;2023-06-05T08:49:56;22.60;1.00
21646;DHT22;10984;45.712;4.800;2023-06-05T08:52:23;22.50;1.00
21646;DHT22;10984;45.712;4.800;2023-06-05T08:54:50;22.60;1.00
21646;DHT22;10984;45.712;4.800;2023-06-05T08:57:17;22.60;1.00
21646;DHT22;10984;45.712;4.800;2023-06-05T08:59:43;22.60;1.00
21646;DHT22;10984;45.712;4.800;2023-06-05T09:02:10;22.70;1.00
21646;DHT22;10984;45.712;4.800;2023-06-05T09:04:36;22.60;1.00
21646;DHT22;10984;45.712;4.800;2023-06-05T09:07:04;22.60;1.00
21646;DHT22;10984;45.712;4.800;2023-06-05T09:09:31;22.70;1.00
21646;DHT22;10984;45.712;4.800;2023-06-05T09:12:16;22.60;1.00
21646;DHT22;10984;45.712;4.800;2023-06-05T09:14:43;22.70;1.00
21646;DHT22;10984;45.712;4.800;2023-06-05T09:17:13;22.80;1.00
21646;DHT22;10984;45.712;4.800;2023-06-05T09:19:40;22.70;1.00
21646;DHT22;10984;45.712;4.800;2023-06-05T09:22:08;22.70;1.00
21646;DHT22;10984;45.712;4.800;2023-06-05T09:24:36;22.80;1.00
21646;DHT22;10984;45.712;4.800;2023-06-05T09:27:20;22.90;1.00
21646;DHT22;10984;45.712;4.800;2023-06-05T09:29:46;23.10;1.00
21646;DHT22;10984;45.712;4.800;2023-06-05T09:32:30;23.10;1.00
21646;DHT22;10984;45.712;4.800;2023-06-05T09:34:56;23.30;1.00
21646;DHT22;10984;45.712;4.800;2023-06-05T09:37:40;23.40;1.00
21646;DHT22;10984;45.712;4.800;2023-06-05T09:40:11;23.40;1.00
21646;DHT22;10984;45.712;4.800;2023-06-05T09:42:40;23.50;1.00
21646;DHT22;10984;45.712;4.800;2023-06-05T09:45:06;23.50;1.00
21646;DHT22;10984;45.712;4.800;2023-06-05T09:47:32;23.50;1.00
21646;DHT22;10984;45.712;4.800;2023-06-05T09:49:57;23.50;1.00
21646;DHT22;10984;45.712;4.800;2023-06-05T09:52:23;23.70;1.00
21646;DHT22;10984;45.712;4.800;2023-06-05T09:54:49;23.80;1.00
21646;DHT22;10984;45.712;4.800;2023-06-05T09:57:18;23.80;1.00
21646;DHT22;10984;45.712;4.800;2023-06-05T10:00:03;23.90;1.00
21646;DHT22;10984;45.712;4.800;2023-06-05T10:02:50;23.90;1.00
21646;DHT22;10984;45.712;4.800;2023-06-05T10:05:17;23.90;1.00
21646;DHT22;10984;45.712;4.800;2023-06-05T10:07:43;24.00;1.00
21646;DHT22;10984;45.712;4.800;2023-06-05T10:10:09;24.00;1.00
21646;DHT22;10984;45.712;4.800;2023-06-05T10:12:36;24.00;1.00
21646;DHT22;10984;45.712;4.800;2023-06-05T10:15:02;24.00;1.00
21646;DHT22;10984;45.712;4.800;2023-06-05T10:17:28;24.00;1.00
21646;DHT22;10984;45.712;4.800;2023-06-05T10:19:55;24.10;1.00
21646;DHT22;10984;45.712;4.800;2023-06-05T10:22:22;24.10;1.00
21646;DHT22;10984;45.712;4.800;2023-06-05T10:25:07;24.10;1.00
21646;DHT22;10984;45.712;4.800;2023-06-05T10:34:23;24.20;1.00
21646;DHT22;10984;45.712;4.800;2023-06-05T10:39:50;24.20;1.00
21646;DHT22;10984;45.712;4.800;2023-06-05T10:42:35;24.10;1.00
21646;DHT22;10984;45.712;4.800;2023-06-05T10:45:01;24.00;1.00
21646;DHT22;10984;45.712;4.800;2023-06-05T10:50:30;23.90;1.00
21646;DHT22;10984;45.712;4.800;2023-06-05T10:52:57;23.90;1.00
21646;DHT22;10984;45.712;4.800;2023-06-05T10:55:24;24.00;1.00
21646;DHT22;10984;45.712;4.800;2023-06-05T11:00:39;24.20;1.00
21646;DHT22;10984;45.712;4.800;2023-06-05T11:06:27;24.50;1.00
21646;DHT22;10984;45.712;4.800;2023-06-05T11:09:12;24.70;1.00
21646;DHT22;10984;45.712;4.800;2023-06-05T11:15:01;24.70;1.00
21646;DHT22;10984;45.712;4.800;2023-06-05T11:17:46;24.80;1.00
21646;DHT22;10984;45.712;4.800;2023-06-05T11:23:14;25.00;1.00
21646;DHT22;10984;45.712;4.800;2023-06-05T11:25:40;25.10;1.00
21646;DHT22;10984;45.712;4.800;2023-06-05T11:28:06;25.00;1.00
21646;DHT22;10984;45.712;4.800;2023-06-05T11:30:50;25.00;1.00
21646;DHT22;10984;45.712;4.800;2023-06-05T11:33:17;25.00;1.00
21646;DHT22;10984;45.712;4.800;2023-06-05T11:35:46;25.10;1.00
21646;DHT22;10984;45.712;4.800;2023-06-05T11:38:17;25.10;1.00
21646;DHT22;10984;45.712;4.800;2023-06-05T11:40:43;25.10;1.00
21646;DHT22;10984;45.712;4.800;2023-06-05T11:43:11;25.10;1.00
21646;DHT22;10984;45.712;4.800;2023-06-05T11:45:38;25.20;1.00
21646;DHT22;10984;45.712;4.800;2023-06-05T11:50:31;25.30;1.00
21646;DHT22;10984;45.712;4.800;2023-06-05T11:53:15;25.40;1.00
21646;DHT22;10984;45.712;4.800;2023-06-05T11:55:41;25.40;1.00
21646;DHT22;10984;45.712;4.800;2023-06-05T11:58:28;25.50;1.00
21646;DHT22;10984;45.712;4.800;2023-06-05T12:04:16;25.70;1.00
21646;DHT22;10984;45.712;4.800;2023-06-05T12:06:45;25.80;1.00
21646;DHT22;10984;45.712;4.800;2023-06-05T12:09:14;25.80;1.00
21646;DHT22;10984;45.712;4.800;2023-06-05T12:11:45;25.80;1.00
21646;DHT22;10984;45.712;4.800;2023-06-05T12:14:11;25.90;99.90
21646;DHT22;10984;45.712;4.800;2023-06-05T12:16:39;25.80;99.90
21646;DHT22;10984;45.712;4.800;2023-06-05T12:19:24;25.80;99.90
21646;DHT22;10984;45.712;4.800;2023-06-05T12:21:50;25.70;99.90
21646;DHT22;10984;45.712;4.800;2023-06-05T12:24:38;25.70;99.90
21646;DHT22;10984;45.712;4.800;2023-06-05T12:27:05;25.70;99.90
21646;DHT22;10984;45.712;4.800;2023-06-05T12:29:33;25.60;99.90
21646;DHT22;10984;45.712;4.800;2023-06-05T12:32:01;25.50;99.90
21646;DHT22;10984;45.712;4.800;2023-06-05T12:34:46;25.60;99.90
21646;DHT22;10984;45.712;4.800;2023-06-05T12:37:32;25.60;99.90
21646;DHT22;10984;45.712;4.800;2023-06-05T12:40:00;25.50;99.90
21646;DHT22;10984;45.712;4.800;2023-06-05T12:42:26;25.60;99.90
21646;DHT22;10984;45.712;4.800;2023-06-05T12:44:52;25.70;99.90
21646;DHT22;10984;45.712;4.800;2023-06-05T12:47:17;25.70;99.90
21646;DHT22;10984;45.712;4.800;2023-06-05T12:49:43;25.70;99.90
21646;DHT22;10984;45.712;4.800;2023-06-05T12:52:09;25.70;99.90
21646;DHT22;10984;45.712;4.800;2023-06-05T12:54:54;25.70;99.90
21646;DHT22;10984;45.712;4.800;2023-06-05T12:57:20;25.70;99.90
21646;DHT22;10984;45.712;4.800;2023-06-05T12:59:51;25.60;99.90
21646;DHT22;10984;45.712;4.800;2023-06-05T13:02:17;25.60;99.90
21646;DHT22;10984;45.712;4.800;2023-06-05T13:04:42;25.60;99.90
21646;DHT22;10984;45.712;4.800;2023-06-05T13:07:08;25.50;98.70
21646;DHT22;10984;45.712;4.800;2023-06-05T13:09:36;25.50;8.70
21646;DHT22;10984;45.712;4.800;2023-06-05T13:12:02;25.50;53.20
21646;DHT22;10984;45.712;4.800;2023-06-05T13:14:32;25.50;74.10
21646;DHT22;10984;45.712;4.800;2023-06-05T13:16:59;25.40;61.80
21646;DHT22;10984;45.712;4.800;2023-06-05T13:19:24;25.40;13.70
21646;DHT22;10984;45.712;4.800;2023-06-05T13:21:51;25.50;54.50
21646;DHT22;10984;45.712;4.800;2023-06-05T13:24:17;25.60;41.00
21646;DHT22;10984;45.712;4.800;2023-06-05T13:26:43;25.70;99.90
21646;DHT22;10984;45.712;4.800;2023-06-05T13:29:10;25.80;43.60
21646;DHT22;10984;45.712;4.800;2023-06-05T13:31:35;25.80;39.90
21646;DHT22;10984;45.712;4.800;2023-06-05T13:34:01;25.90;1.00
21646;DHT22;10984;45.712;4.800;2023-06-05T13:36:27;25.80;7.80
21646;DHT22;10984;45.712;4.800;2023-06-05T13:38:53;25.90;1.00
21646;DHT22;10984;45.712;4.800;2023-06-05T13:41:19;26.00;1.00
21646;DHT22;10984;45.712;4.800;2023-06-05T13:43:45;26.00;1.00
21646;DHT22;10984;45.712;4.800;2023-06-05T13:46:11;26.00;1.00
21646;DHT22;10984;45.712;4.800;2023-06-05T13:48:37;26.10;1.00
21646;DHT22;10984;45.712;4.800;2023-06-05T13:51:03;26.10;1.00
21646;DHT22;10984;45.712;4.800;2023-06-05T13:53:29;26.10;1.00
21646;DHT22;10984;45.712;4.800;2023-06-05T13:58:45;26.10;1.00
21646;DHT22;10984;45.712;4.800;2023-06-05T14:01:11;26.00;76.70
21646;DHT22;10984;45.712;4.800;2023-06-05T14:03:36;26.10;1.00
21646;DHT22;10984;45.712;4.800;2023-06-05T14:06:02;26.00;99.90
21646;DHT22;10984;45.712;4.800;2023-06-05T14:08:28;26.00;99.90
21646;DHT22;10984;45.712;4.800;2023-06-05T14:10:54;26.10;99.90
21646;DHT22;10984;45.712;4.800;2023-06-05T14:13:20;26.00;99.90
21646;DHT22;10984;45.712;4.800;2023-06-05T14:15:45;26.00;99.90
21646;DHT22;10984;45.712;4.800;2023-06-05T14:18:11;26.10;99.90
21646;DHT22;10984;45.712;4.800;2023-06-05T14:20:37;26.10;99.90
21646;DHT22;10984;45.712;4.800;2023-06-05T14:23:03;26.20;99.90
21646;DHT22;10984;45.712;4.800;2023-06-05T14:25:29;26.10;99.90
21646;DHT22;10984;45.712;4.800;2023-06-05T14:27:56;26.10;99.90
21646;DHT22;10984;45.712;4.800;2023-06-05T14:30:23;26.20;99.90
21646;DHT22;10984;45.712;4.800;2023-06-05T14:32:48;26.20;99.90
21646;DHT22;10984;45.712;4.800;2023-06-05T14:35:15;26.10;99.90
21646;DHT22;10984;45.712;4.800;2023-06-05T14:37:42;26.10;99.90
21646;DHT22;10984;45.712;4.800;2023-06-05T14:40:08;26.10;99.90
21646;DHT22;10984;45.712;4.800;2023-06-05T14:42:34;26.10;99.90
21646;DHT22;10984;45.712;4.800;2023-06-05T14:45:00;26.20;99.90
21646;DHT22;10984;45.712;4.800;2023-06-05T14:47:25;26.20;99.90
21646;DHT22;10984;45.712;4.800;2023-06-05T14:49:51;26.20;9.00
21646;DHT22;10984;45.712;4.800;2023-06-05T14:52:17;26.20;21.40
21646;DHT22;10984;45.712;4.800;2023-06-05T14:54:44;26.20;1.00
21646;DHT22;10984;45.712;4.800;2023-06-05T14:57:10;26.20;54.00
21646;DHT22;10984;45.712;4.800;2023-06-05T14:59:35;26.20;91.30
21646;DHT22;10984;45.712;4.800;2023-06-05T15:02:01;26.30;20.10
21646;DHT22;10984;45.712;4.800;2023-06-05T15:04:27;26.30;1.00
21646;DHT22;10984;45.712;4.800;2023-06-05T15:06:53;26.30;1.00
21646;DHT22;10984;45.712;4.800;2023-06-05T15:09:20;26.20;3.20
21646;DHT22;10984;45.712;4.800;2023-06-05T15:11:46;26.30;74.70
21646;DHT22;10984;45.712;4.800;2023-06-05T15:14:12;26.30;1.00
21646;DHT22;10984;45.712;4.800;2023-06-05T15:16:38;26.30;29.00
21646;DHT22;10984;45.712;4.800;2023-06-05T15:19:04;26.20;1.00
21646;DHT22;10984;45.712;4.800;2023-06-05T15:21:30;26.20;1.00
21646;DHT22;10984;45.712;4.800;2023-06-05T15:23:55;26.20;1.00
21646;DHT22;10984;45.712;4.800;2023-06-05T15:26:21;26.20;31.20
21646;DHT22;10984;45.712;4.800;2023-06-05T15:28:47;26.20;1.00
21646;DHT22;10984;45.712;4.800;2023-06-05T15:31:12;26.20;1.00
21646;DHT22;10984;45.712;4.800;2023-06-05T15:33:38;26.20;1.00
21646;DHT22;10984;45.712;4.800;2023-06-05T15:36:05;26.20;1.00
21646;DHT22;10984;45.712;4.800;2023-06-05T15:38:30;26.20;1.00
21646;DHT22;10984;45.712;4.800;2023-06-05T15:40:56;26.20;1.00
21646;DHT22;10984;45.712;4.800;2023-06-05T15:43:23;26.20;1.00
21646;DHT22;10984;45.712;4.800;2023-06-05T15:45:48;26.20;1.00
21646;DHT22;10984;45.712;4.800;2023-06-05T15:48:15;26.20;1.00
21646;DHT22;10984;45.712;4.800;2023-06-05T15:50:40;26.30;1.00
21646;DHT22;10984;45.712;4.800;2023-06-05T15:53:06;26.20;1.00
21646;DHT22;10984;45.712;4.800;2023-06-05T15:55:33;26.20;1.00
21646;DHT22;10984;45.712;4.800;2023-06-05T15:58:03;26.20;1.00
21646;DHT22;10984;45.712;4.800;2023-06-05T16:00:28;26.30;1.00
21646;DHT22;10984;45.712;4.800;2023-06-05T16:02:54;26.30;1.00
21646;DHT22;10984;45.712;4.800;2023-06-05T16:05:20;26.30;1.00
21646;DHT22;10984;45.712;4.800;2023-06-05T16:07:47;26.40;1.00
21646;DHT22;10984;45.712;4.800;2023-06-05T16:10:12;26.40;1.00
21646;DHT22;10984;45.712;4.800;2023-06-05T16:12:38;26.50;1.00
21646;DHT22;10984;45.712;4.800;2023-06-05T16:15:04;26.40;1.00
21646;DHT22;10984;45.712;4.800;2023-06-05T16:17:30;26.50;1.00
21646;DHT22;10984;45.712;4.800;2023-06-05T16:19:56;26.50;99.90
21646;DHT22;10984;45.712;4.800;2023-06-05T16:22:22;26.50;99.90